LA6JKA Spydeberg NO current weather conditions

sailwx.info

Wind from 227 at 3 knots gusting 7

Air temperature 15.6° C
Dewpoint 13.0° C

Last reported at 2019-Jul-18 06:45 UTC.
Time now 2019-Jul-18 07:22 UTC

Location: N 59°37' E 011°06'.
View on Google Maps.

See reports from other nearby stations

  
Tides and Currents Weather Stations Pressure Air Temp Water Temp Dewpoint Dewpoint Depression Visibility Wind Speed Wind Dir Waves Ship Positions
date/time (UTC)wind fromknots sea level pressurealtimeterstation pressurevisibilityair tempwater tempwave heightnotes
2019-Jul-18 07:00 165 4 gusting 12 15.6
2019-Jul-18 06:45 227 3 gusting 7 15.6
2019-Jul-18 06:30 173 5 gusting 10 15.6
2019-Jul-18 06:15 161 6 gusting 12 16.1
2019-Jul-18 06:00 196 3 gusting 8 15.6
2019-Jul-18 05:45 180 2 gusting 5 15.6
2019-Jul-18 05:30 221 3 gusting 11 15.6
2019-Jul-18 05:15 165 6 gusting 11 15.0
2019-Jul-18 05:00 180 2 gusting 8 15.0
2019-Jul-18 04:45 211 4 gusting 8 15.0
2019-Jul-18 04:30 219 2 gusting 9 15.0
2019-Jul-18 04:16 186 3 gusting 9 15.0
2019-Jul-18 04:01 213 3 gusting 9 15.0
2019-Jul-18 03:47 174 1 gusting 5 14.4
2019-Jul-18 03:32 171 2 gusting 5 14.4
2019-Jul-18 03:16 168 14.4
2019-Jul-18 03:02 201 14.4
2019-Jul-18 02:47 208 2 gusting 6 14.4
2019-Jul-18 02:31 163 0 gusting 6 14.4
2019-Jul-18 02:16 194 2 gusting 6 14.4
2019-Jul-18 02:02 203 3 gusting 8 13.9
2019-Jul-18 01:46 142 13.9
2019-Jul-18 01:31 157 13.9
2019-Jul-18 01:17 155 13.9
2019-Jul-18 01:01 155 13.9
2019-Jul-18 00:46 153 13.3
2019-Jul-18 00:31 153 13.3
2019-Jul-18 00:16 153 13.3
2019-Jul-18 00:01 151 12.8
2019-Jul-17 23:46 165 12.8
2019-Jul-17 23:31 166 13.3
2019-Jul-17 23:15 164 0 gusting 2 13.3
2019-Jul-17 23:01 162 13.3
2019-Jul-17 22:45 165 13.3
2019-Jul-17 22:30 171 13.9
2019-Jul-17 22:15 159 13.9
2019-Jul-17 22:00 160 13.9
2019-Jul-17 21:45 163 13.9
2019-Jul-17 21:30 169 13.9
2019-Jul-17 21:15 167 13.9
2019-Jul-17 21:01 166 0 gusting 5 14.4
2019-Jul-17 20:45 160 0 gusting 5 14.4
2019-Jul-17 20:31 167 0 gusting 3 15.0
2019-Jul-17 20:15 171 0 gusting 4 15.0
2019-Jul-17 20:00 196 15.6
2019-Jul-17 19:46 196 16.1
2019-Jul-17 19:30 199 3 gusting 10 16.7
2019-Jul-17 19:15 157 5 gusting 9 17.2
2019-Jul-17 19:00 171 5 gusting 11 17.8
2019-Jul-17 18:45 198 4 gusting 11 18.3
2019-Jul-17 18:30 212 5 gusting 13 18.9
2019-Jul-17 18:15 172 3 gusting 8 19.4
2019-Jul-17 18:00 126 5 gusting 10 20.0
2019-Jul-17 17:45 196 5 gusting 14 20.6
2019-Jul-17 17:30 147 4 gusting 13 21.1
2019-Jul-17 17:15 207 4 gusting 11 21.1
2019-Jul-17 17:00 209 6 gusting 14 21.7
2019-Jul-17 16:45 200 7 gusting 14 21.7
2019-Jul-17 16:15 186 5 gusting 10 22.2
2019-Jul-17 16:00 184 5 gusting 11 21.7
2019-Jul-17 15:45 240 6 gusting 10 21.7
2019-Jul-17 15:30 194 9 gusting 16 21.7
2019-Jul-17 15:15 216 7 gusting 14 21.7
2019-Jul-17 15:00 200 6 gusting 13 21.7
2019-Jul-17 14:45 238 8 gusting 15 22.2
2019-Jul-17 14:30 225 5 gusting 11 21.7
2019-Jul-17 14:15 240 6 gusting 13 22.2
2019-Jul-17 14:00 231 6 gusting 13 22.2
2019-Jul-17 13:45 237 6 gusting 13 22.2
2019-Jul-17 13:17 167 8 gusting 13 22.2
2019-Jul-17 13:02 176 5 gusting 16 22.2
2019-Jul-17 12:48 182 6 gusting 13 22.2
2019-Jul-17 12:31 193 8 gusting 16 21.7
2019-Jul-17 12:17 232 9 gusting 17 21.7
2019-Jul-17 12:02 196 7 gusting 13 22.2
2019-Jul-17 11:46 244 6 gusting 14 22.2
2019-Jul-17 11:31 236 7 gusting 13 22.2
2019-Jul-17 11:16 232 9 gusting 15 22.2
2019-Jul-17 11:02 219 6 gusting 15 22.2
2019-Jul-17 10:46 175 7 gusting 15 22.2
2019-Jul-17 10:32 205 6 gusting 14 21.7
2019-Jul-17 10:16 236 6 gusting 12 21.7
2019-Jul-17 10:01 167 6 gusting 12 21.1
2019-Jul-17 09:46 252 5 gusting 13 20.6
2019-Jul-17 09:31 259 3 gusting 8 20.6
2019-Jul-17 09:16 186 4 gusting 8 20.6
2019-Jul-17 09:01 188 4 gusting 8 20.0
2019-Jul-17 08:45 214 3 gusting 8 20.6
2019-Jul-17 08:30 193 2 gusting 7 20.6
2019-Jul-17 08:16 227 3 gusting 7 20.0
2019-Jul-17 08:01 237 4 gusting 9 20.0
2019-Jul-17 07:46 211 0 gusting 6 20.6
2019-Jul-17 07:30 202 1 gusting 6 20.0
2019-Jul-17 07:15 152 3 gusting 7 19.4
2019-Jul-17 07:00 163 1 gusting 6 18.9
2019-Jul-17 06:47 164 17.8
2019-Jul-17 06:30 170 0 gusting 2 16.1
2019-Jul-17 06:15 082 15.6
2019-Jul-17 06:01 082 14.4
2019-Jul-17 05:45 078 13.9
2019-Jul-17 05:30 076 12.8
2019-Jul-17 05:15 075 11.7
2019-Jul-17 05:00 075 11.1
2019-Jul-17 04:45 075 10.6
2019-Jul-17 04:30 075 10.0
2019-Jul-17 04:15 075 10.0
2019-Jul-17 04:00 075 10.0
2019-Jul-17 03:45 075 9.4
2019-Jul-17 03:30 075 9.4
2019-Jul-17 03:15 075 8.9
2019-Jul-17 03:00 075 8.9
2019-Jul-17 02:45 075 8.9
2019-Jul-17 02:30 075 8.9
2019-Jul-17 02:02 075 8.9
2019-Jul-17 01:46 075 9.4
2019-Jul-17 01:31 075 9.4
2019-Jul-17 01:17 075 9.4
2019-Jul-17 01:01 075 9.4
2019-Jul-17 00:46 075 10.0
2019-Jul-17 00:32 075 10.0
2019-Jul-17 00:17 075 10.0
2019-Jul-17 00:02 075 10.6
2019-Jul-16 23:46 075 10.6
2019-Jul-16 23:31 075 11.1
2019-Jul-16 23:16 075 11.1
2019-Jul-16 23:01 075 11.1
2019-Jul-16 22:46 075 11.7
2019-Jul-16 22:30 073 11.7
2019-Jul-16 22:16 073 12.2
2019-Jul-16 22:01 073 12.8
2019-Jul-16 21:46 073 13.3
2019-Jul-16 21:30 073 13.3
2019-Jul-16 21:15 073 13.9
2019-Jul-16 21:01 073 14.4
2019-Jul-16 20:45 072 15.0
2019-Jul-16 20:31 072 15.6
2019-Jul-16 20:15 073 16.7
2019-Jul-16 20:00 072 17.2
2019-Jul-16 19:45 073 18.3
2019-Jul-16 19:31 082 1 gusting 2 19.4
2019-Jul-16 19:15 081 20.0
2019-Jul-16 19:00 093 1 gusting 5 21.1
2019-Jul-16 18:45 077 0 gusting 4 21.7
2019-Jul-16 18:30 087 1 gusting 4 22.2
2019-Jul-16 18:15 052 1 gusting 6 22.2
2019-Jul-16 18:00 071 0 gusting 4 22.8
2019-Jul-16 17:45 060 2 gusting 6 22.2
2019-Jul-16 17:30 032 1 gusting 9 22.2
2019-Jul-16 17:15 343 2 gusting 9 22.2
2019-Jul-16 17:00 005 5 gusting 10 22.2
2019-Jul-16 16:45 057 3 gusting 8 22.2
2019-Jul-16 16:30 076 2 gusting 8 21.7
2019-Jul-16 16:15 035 4 gusting 9 21.7
2019-Jul-16 16:00 013 2 gusting 9 21.7
2019-Jul-16 15:45 031 4 gusting 9 21.7
2019-Jul-16 15:30 355 3 gusting 9 21.1
2019-Jul-16 15:15 347 2 gusting 10 21.7
2019-Jul-16 15:00 350 6 gusting 10 22.2
2019-Jul-16 14:45 028 5 gusting 11 21.7
2019-Jul-16 14:30 348 6 gusting 12 21.1
2019-Jul-16 14:15 025 6 gusting 12 21.7
2019-Jul-16 14:00 005 6 gusting 15 21.1
2019-Jul-16 13:45 323 6 gusting 13 21.7
2019-Jul-16 13:31 005 6 gusting 13 20.6
2019-Jul-16 13:16 298 5 gusting 13 21.1
2019-Jul-16 13:01 314 5 gusting 12 21.1
2019-Jul-16 12:47 355 8 gusting 15 20.6
2019-Jul-16 12:32 019 8 gusting 14 20.6
2019-Jul-16 12:17 340 6 gusting 15 20.6
2019-Jul-16 12:02 347 6 gusting 13 20.0
2019-Jul-16 11:47 053 4 gusting 14 20.0
2019-Jul-16 11:31 063 5 gusting 13 19.4
2019-Jul-16 11:16 344 7 gusting 12 19.4
2019-Jul-16 11:01 344 7 gusting 13 18.9
2019-Jul-16 10:45 331 6 gusting 16 18.9
2019-Jul-16 10:31 009 6 gusting 13 18.3
2019-Jul-16 10:16 005 6 gusting 17 17.8
2019-Jul-16 10:01 074 5 gusting 13 18.3
2019-Jul-16 09:46 342 4 gusting 16 17.8
2019-Jul-16 09:31 355 6 gusting 11 17.8
2019-Jul-16 09:16 022 6 gusting 12 17.2
2019-Jul-16 09:00 029 6 gusting 14 16.7
2019-Jul-16 08:46 355 5 gusting 12 16.7
2019-Jul-16 08:15 334 6 gusting 13 16.1
2019-Jul-16 08:00 343 5 gusting 13 15.6
2019-Jul-16 07:45 016 6 gusting 16 15.0
2019-Jul-16 07:30 014 10 gusting 15 14.4
2019-Jul-16 07:15 338 7 gusting 13 14.4
2019-Jul-16 07:00 304 4 gusting 13 13.9